createdAt,value
2022-12-01T00:01:24.350Z,1.67
2022-12-01T00:03:54.711Z,1.65
2022-12-01T00:06:24.660Z,1.67
2022-12-01T00:09:10.910Z,1.84
2022-12-01T00:11:42.959Z,1.82
2022-12-01T00:14:13.441Z,1.72
2022-12-01T00:16:44.590Z,1.76
2022-12-01T00:19:15.129Z,1.78
2022-12-01T00:21:45.095Z,1.67
2022-12-01T00:24:18.003Z,1.63
2022-12-01T00:26:48.031Z,1.52
2022-12-01T00:29:18.522Z,1.45
2022-12-01T00:31:48.705Z,1.49
2022-12-01T00:34:25.492Z,1.37
2022-12-01T00:36:55.448Z,1.53
2022-12-01T00:39:28.669Z,1.57
2022-12-01T00:41:58.666Z,1.66
2022-12-01T00:44:28.970Z,1.53
2022-12-01T00:46:58.894Z,1.61
2022-12-01T00:49:29.162Z,1.63
2022-12-01T00:51:59.321Z,1.77
2022-12-01T00:54:32.982Z,1.71
2022-12-01T00:57:03.266Z,1.72
2022-12-01T00:59:33.747Z,1.81
2022-12-01T01:02:04.629Z,1.75
2022-12-01T01:04:36.967Z,1.44
2022-12-01T01:07:07.230Z,1.48
2022-12-01T01:09:40.669Z,1.50
2022-12-01T01:12:11.175Z,1.47
2022-12-01T01:14:41.805Z,1.13
2022-12-01T01:17:12.042Z,1.34
2022-12-01T01:19:42.619Z,1.27
2022-12-01T01:22:12.849Z,1.17
2022-12-01T01:24:46.029Z,1.33
2022-12-01T01:27:16.249Z,1.42
2022-12-01T01:29:47.208Z,1.47
2022-12-01T01:32:17.814Z,1.51
2022-12-01T01:34:48.470Z,1.52
2022-12-01T01:37:18.796Z,1.46
2022-12-01T01:39:52.008Z,1.41
2022-12-01T01:42:22.766Z,1.32
2022-12-01T01:44:55.957Z,1.48
2022-12-01T01:47:29.536Z,1.53
2022-12-01T01:50:06.631Z,1.53
2022-12-01T01:52:39.219Z,1.44
2022-12-01T01:55:12.846Z,1.51
2022-12-01T01:57:44.491Z,1.56
2022-12-01T02:00:18.968Z,1.46
2022-12-01T02:02:51.538Z,1.48
2022-12-01T02:05:25.490Z,1.56
2022-12-01T02:07:58.677Z,1.55
2022-12-01T02:10:40.787Z,1.57
2022-12-01T02:13:17.405Z,1.43
2022-12-01T02:15:56.499Z,1.48
2022-12-01T02:18:39.558Z,1.57
2022-12-01T02:21:32.376Z,1.46
2022-12-01T02:24:36.683Z,1.44
2022-12-01T02:27:14.626Z,1.42
2022-12-01T02:30:09.638Z,1.22
2022-12-01T02:33:03.232Z,1.46
2022-12-01T02:35:39.569Z,1.44
2022-12-01T02:38:17.299Z,1.38
2022-12-01T02:40:54.193Z,1.43
2022-12-01T02:43:31.080Z,1.36
2022-12-01T02:46:05.402Z,1.30
2022-12-01T02:48:41.289Z,1.24
2022-12-01T02:51:17.357Z,1.33
2022-12-01T02:53:48.161Z,1.42
2022-12-01T02:56:18.685Z,1.35
2022-12-01T02:58:49.032Z,1.49
2022-12-01T03:01:38.863Z,1.53
2022-12-01T03:04:29.544Z,1.51
2022-12-01T03:07:17.523Z,1.34
2022-12-01T03:09:57.826Z,1.46
2022-12-01T03:12:36.361Z,1.39
2022-12-01T03:15:12.978Z,1.54
2022-12-01T03:17:50.010Z,1.55
2022-12-01T03:20:31.636Z,1.44
2022-12-01T03:23:09.646Z,1.35
2022-12-01T03:25:42.935Z,1.33
2022-12-01T03:28:23.149Z,1.06
2022-12-01T03:30:58.825Z,1.10
2022-12-01T03:33:34.234Z,1.29
2022-12-01T03:36:15.077Z,1.24
2022-12-01T03:38:48.437Z,1.28
2022-12-01T03:41:22.845Z,1.24
2022-12-01T03:43:58.648Z,1.18
2022-12-01T03:46:41.081Z,1.25
2022-12-01T03:49:11.885Z,1.30
2022-12-01T03:51:55.395Z,1.27
2022-12-01T03:54:36.405Z,1.31
2022-12-01T03:57:11.214Z,1.20
2022-12-01T03:59:43.749Z,1.19
2022-12-01T04:02:14.925Z,1.23
2022-12-01T04:04:44.951Z,1.15
2022-12-01T04:07:17.925Z,1.11
2022-12-01T04:09:48.217Z,1.04
2022-12-01T04:12:31.609Z,0.97
2022-12-01T04:15:03.330Z,0.92
2022-12-01T04:17:34.312Z,0.99
2022-12-01T04:20:06.528Z,1.05
2022-12-01T04:22:39.561Z,1.12
2022-12-01T04:25:10.608Z,1.13
2022-12-01T04:27:42.066Z,1.06
2022-12-01T04:30:13.627Z,1.13
2022-12-01T04:32:45.960Z,0.89
2022-12-01T04:35:16.173Z,1.04
2022-12-01T04:37:49.338Z,1.14
2022-12-01T04:40:19.946Z,1.19
2022-12-01T04:42:50.546Z,1.22
2022-12-01T04:45:20.769Z,1.15
2022-12-01T04:47:51.358Z,1.21
2022-12-01T04:50:21.687Z,1.26
2022-12-01T04:52:54.918Z,1.12
2022-12-01T04:55:25.840Z,1.22
2022-12-01T04:57:56.380Z,1.25
2022-12-01T05:00:26.917Z,1.24
2022-12-01T05:02:57.759Z,1.22
2022-12-01T05:05:27.737Z,1.16
2022-12-01T05:08:01.330Z,1.00
2022-12-01T05:10:31.307Z,1.13
2022-12-01T05:13:02.438Z,1.05
2022-12-01T05:15:32.405Z,1.14
2022-12-01T05:18:02.756Z,1.15
2022-12-01T05:21:00.010Z,1.06
2022-12-01T05:23:35.275Z,1.03
2022-12-01T05:26:07.231Z,1.08
2022-12-01T05:28:38.761Z,1.02
2022-12-01T05:31:08.968Z,1.11
2022-12-01T05:33:39.246Z,1.17
2022-12-01T05:36:09.862Z,0.98
2022-12-01T05:38:42.732Z,1.08
2022-12-01T05:41:13.553Z,0.97
2022-12-01T05:43:43.840Z,1.05
2022-12-01T05:46:13.808Z,1.01
2022-12-01T05:48:45.159Z,1.05
2022-12-01T05:51:17.388Z,0.99
2022-12-01T05:53:50.314Z,1.00
2022-12-01T05:56:20.327Z,0.97
2022-12-01T05:58:50.583Z,1.06
2022-12-01T06:01:20.688Z,1.00
2022-12-01T06:03:50.990Z,0.87
2022-12-01T06:06:21.005Z,0.88
2022-12-01T06:08:53.974Z,1.05
2022-12-01T06:11:24.089Z,0.98
2022-12-01T06:13:54.325Z,1.00
2022-12-01T06:16:24.339Z,1.05
2022-12-01T06:18:54.689Z,1.10
2022-12-01T06:21:24.550Z,1.00
2022-12-01T06:23:57.483Z,1.03
2022-12-01T06:26:27.395Z,0.86
2022-12-01T06:28:59.149Z,0.79
2022-12-01T06:31:29.070Z,0.87
2022-12-01T06:33:59.623Z,0.84
2022-12-01T06:36:29.659Z,0.97
2022-12-01T06:39:02.536Z,0.94
2022-12-01T06:41:32.461Z,0.93
2022-12-01T06:44:03.983Z,0.87
2022-12-01T06:46:34.059Z,0.90
2022-12-01T06:49:04.396Z,0.69
2022-12-01T06:51:34.429Z,0.86
2022-12-01T06:54:07.773Z,0.90
2022-12-01T06:56:37.611Z,0.97
2022-12-01T06:59:08.065Z,1.00
2022-12-01T07:01:46.820Z,1.03
2022-12-01T07:04:22.327Z,1.01
2022-12-01T07:06:55.532Z,1.03
2022-12-01T07:09:28.705Z,1.06
2022-12-01T07:11:58.906Z,1.04
2022-12-01T07:14:31.622Z,1.12
2022-12-01T07:17:02.009Z,1.03
2022-12-01T07:19:33.959Z,0.90
2022-12-01T07:22:04.195Z,0.92
2022-12-01T07:24:37.482Z,0.83
2022-12-01T07:27:07.817Z,0.86
2022-12-01T07:29:38.474Z,0.99
2022-12-01T07:32:08.729Z,1.13
2022-12-01T07:34:39.252Z,1.14
2022-12-01T07:37:09.533Z,1.16
2022-12-01T07:39:42.456Z,1.15
2022-12-01T07:42:12.359Z,1.08
2022-12-01T07:44:42.716Z,1.05
2022-12-01T07:47:13.550Z,1.05
2022-12-01T07:49:43.803Z,1.09
2022-12-01T07:52:13.718Z,1.08
2022-12-01T07:54:46.563Z,1.07
2022-12-01T07:57:18.200Z,1.08
2022-12-01T07:59:48.939Z,0.97
2022-12-01T08:02:19.117Z,0.99
2022-12-01T08:04:49.796Z,1.09
2022-12-01T08:07:29.674Z,0.96
2022-12-01T08:10:03.083Z,1.04
2022-12-01T08:12:33.090Z,1.12
2022-12-01T08:15:03.423Z,0.94
2022-12-01T08:17:33.379Z,1.07
2022-12-01T08:20:04.118Z,1.06
2022-12-01T08:22:34.840Z,1.08
2022-12-01T08:25:08.609Z,1.17
2022-12-01T08:27:42.497Z,1.24
2022-12-01T08:30:13.684Z,1.10
2022-12-01T08:32:43.772Z,0.96
2022-12-01T08:35:14.205Z,1.12
2022-12-01T08:37:44.167Z,1.12
2022-12-01T08:40:17.784Z,0.98
2022-12-01T08:42:48.508Z,1.08
2022-12-01T08:45:19.034Z,1.15
2022-12-01T08:47:49.056Z,0.96
2022-12-01T08:50:19.767Z,1.03
2022-12-01T08:52:49.722Z,1.07
2022-12-01T08:55:22.600Z,1.14
2022-12-01T08:57:52.532Z,1.14
2022-12-01T09:00:22.964Z,1.13
2022-12-01T09:02:53.037Z,1.20
2022-12-01T09:05:23.335Z,1.23
2022-12-01T09:08:13.331Z,1.10
2022-12-01T09:10:54.019Z,1.15
2022-12-01T09:13:24.005Z,1.04
2022-12-01T09:15:59.049Z,1.03
2022-12-01T09:18:29.275Z,1.05
2022-12-01T09:21:00.191Z,1.12
2022-12-01T09:23:30.154Z,1.08
2022-12-01T09:26:03.441Z,0.95
2022-12-01T09:28:33.418Z,1.01
2022-12-01T09:31:07.533Z,1.15
2022-12-01T09:33:37.798Z,1.12
2022-12-01T09:36:10.005Z,0.96
2022-12-01T09:38:42.002Z,1.06
2022-12-01T09:41:20.741Z,1.09
2022-12-01T09:43:58.111Z,1.12
2022-12-01T09:46:34.828Z,1.14
2022-12-01T09:49:06.689Z,1.15
2022-12-01T09:51:38.339Z,1.20
2022-12-01T09:54:13.758Z,1.13
2022-12-01T09:56:50.321Z,1.16
2022-12-01T09:59:24.285Z,1.16
2022-12-01T10:01:59.541Z,1.22
2022-12-01T10:04:47.180Z,1.14
2022-12-01T10:07:24.398Z,1.06
2022-12-01T10:09:58.621Z,1.10
2022-12-01T10:12:35.114Z,1.15
2022-12-01T10:15:43.746Z,1.20
2022-12-01T10:18:27.494Z,1.15
2022-12-01T10:21:12.466Z,1.03
2022-12-01T10:24:07.640Z,1.05
2022-12-01T10:26:44.881Z,0.98
2022-12-01T10:29:27.405Z,1.00
2022-12-01T10:31:58.930Z,1.13
2022-12-01T10:34:31.761Z,1.14
2022-12-01T10:37:02.423Z,1.20
2022-12-01T10:39:37.569Z,1.20
2022-12-01T10:42:10.746Z,1.24
2022-12-01T10:44:45.169Z,1.21
2022-12-01T10:47:22.668Z,1.23
2022-12-01T10:49:53.619Z,1.24
2022-12-01T10:52:39.182Z,1.23
2022-12-01T10:55:29.079Z,1.24
2022-12-01T10:58:07.678Z,1.21
2022-12-01T11:01:01.185Z,1.24
2022-12-01T11:03:34.470Z,1.26
2022-12-01T11:06:08.320Z,1.30
2022-12-01T11:08:43.052Z,1.34
2022-12-01T11:11:28.126Z,1.25
2022-12-01T11:14:00.516Z,1.24
2022-12-01T11:16:43.009Z,1.15
2022-12-01T11:19:26.819Z,1.18
2022-12-01T11:21:59.471Z,1.15
2022-12-01T11:24:48.321Z,1.14
2022-12-01T11:27:21.825Z,1.15
2022-12-01T11:29:54.143Z,1.18
2022-12-01T11:32:30.449Z,1.28
2022-12-01T11:35:05.015Z,1.31
2022-12-01T11:37:41.976Z,1.33
2022-12-01T11:40:19.518Z,1.33
2022-12-01T11:42:52.958Z,1.32
2022-12-01T11:45:32.352Z,1.35
2022-12-01T11:48:08.977Z,1.30
2022-12-01T11:50:41.261Z,1.24
2022-12-01T11:53:29.862Z,1.29
2022-12-01T11:56:23.207Z,1.35
2022-12-01T11:58:59.746Z,1.32
2022-12-01T12:01:43.251Z,1.26
2022-12-01T12:04:31.171Z,1.38
2022-12-01T12:07:11.260Z,1.40
2022-12-01T12:09:54.214Z,1.28
2022-12-01T12:12:38.864Z,1.32
2022-12-01T12:15:23.369Z,1.35
2022-12-01T12:18:08.550Z,1.32
2022-12-01T12:21:01.597Z,1.34
2022-12-01T12:23:53.103Z,1.32
2022-12-01T12:26:27.926Z,1.37
2022-12-01T12:29:24.786Z,1.30
2022-12-01T12:32:10.096Z,1.28
2022-12-01T12:34:50.671Z,1.21
2022-12-01T12:37:46.006Z,1.31
2022-12-01T12:40:42.413Z,1.35
2022-12-01T12:43:27.770Z,1.33
2022-12-01T12:46:04.874Z,1.30
2022-12-01T12:51:47.645Z,1.41
2022-12-01T12:54:29.213Z,1.51
2022-12-01T12:57:04.956Z,1.49
2022-12-01T13:00:32.269Z,1.43
2022-12-01T13:08:53.143Z,1.30
2022-12-01T13:11:30.096Z,1.35
2022-12-01T13:14:06.867Z,1.36
2022-12-01T13:16:39.616Z,1.40
2022-12-01T13:19:16.993Z,1.44
2022-12-01T13:21:49.347Z,1.48
2022-12-01T13:24:23.905Z,1.40
2022-12-01T13:27:02.013Z,1.37
2022-12-01T13:29:46.766Z,1.45
2022-12-01T13:32:30.628Z,1.51
2022-12-01T13:35:02.015Z,1.53
2022-12-01T13:37:34.927Z,1.44
2022-12-01T13:40:22.520Z,1.49
2022-12-01T13:43:08.900Z,1.54
2022-12-01T13:45:43.503Z,1.46
2022-12-01T13:48:30.761Z,1.42
2022-12-01T13:51:03.654Z,1.50
2022-12-01T13:53:36.715Z,1.55
2022-12-01T13:56:39.520Z,1.49
2022-12-01T14:00:05.686Z,1.53
2022-12-01T14:02:38.310Z,1.51
2022-12-01T14:05:38.916Z,1.53
2022-12-01T14:08:22.656Z,1.56
2022-12-01T14:10:59.680Z,1.58
2022-12-01T14:13:31.731Z,1.57
2022-12-01T14:16:06.951Z,1.61
2022-12-01T14:18:39.537Z,1.53
2022-12-01T14:21:14.671Z,1.51
2022-12-01T14:24:04.412Z,1.58
2022-12-01T14:26:35.279Z,1.52
2022-12-01T14:29:28.528Z,1.43
2022-12-01T14:32:25.841Z,1.37
2022-12-01T14:35:06.048Z,1.43
2022-12-01T14:37:46.025Z,1.50
2022-12-01T14:40:31.391Z,1.50
2022-12-01T14:43:16.481Z,1.50
2022-12-01T14:45:58.259Z,1.50
2022-12-01T14:48:40.346Z,1.47
2022-12-01T14:51:19.636Z,1.44
2022-12-01T14:53:53.094Z,1.42
2022-12-01T14:56:26.525Z,1.44
2022-12-01T14:58:59.322Z,1.48
2022-12-01T15:01:35.210Z,1.50
2022-12-01T15:04:09.019Z,1.40
2022-12-01T15:06:40.719Z,1.39
2022-12-01T15:12:07.864Z,1.55
2022-12-01T15:14:39.783Z,1.56
2022-12-01T15:17:10.177Z,1.57
2022-12-01T15:19:44.252Z,1.49
2022-12-01T15:22:16.495Z,1.54
2022-12-01T15:24:47.584Z,1.44
2022-12-01T15:27:31.813Z,1.51
2022-12-01T15:30:04.834Z,1.50
2022-12-01T15:32:39.610Z,1.53
2022-12-01T15:35:22.476Z,1.42
2022-12-01T15:37:54.289Z,1.51
2022-12-01T15:43:21.672Z,1.43
2022-12-01T15:45:54.306Z,1.51
2022-12-01T15:48:31.889Z,1.49
2022-12-01T15:51:11.246Z,1.46
2022-12-01T15:53:52.843Z,1.38
2022-12-01T15:56:28.925Z,1.46
2022-12-01T15:59:04.531Z,1.48
2022-12-01T16:01:41.609Z,1.40
2022-12-01T16:04:32.581Z,1.42
2022-12-01T16:07:13.638Z,1.41
2022-12-01T16:09:45.848Z,1.44
2022-12-01T16:12:26.809Z,1.49
2022-12-01T16:15:06.881Z,1.43
2022-12-01T16:17:45.258Z,1.47
2022-12-01T16:20:22.908Z,1.41
2022-12-01T16:22:59.869Z,1.44
2022-12-01T16:25:39.778Z,1.46
2022-12-01T16:28:21.242Z,1.43
2022-12-01T16:30:52.129Z,1.44
2022-12-01T16:33:25.609Z,1.38
2022-12-01T16:35:59.518Z,1.45
2022-12-01T16:38:32.512Z,1.46
2022-12-01T16:41:16.747Z,1.43
2022-12-01T16:44:12.451Z,1.41
2022-12-01T16:46:41.248Z,1.34
2022-12-01T16:49:11.893Z,1.32
2022-12-01T16:51:55.375Z,1.34
2022-12-01T16:54:29.259Z,1.32
2022-12-01T16:56:59.581Z,1.30
2022-12-01T16:59:30.977Z,1.42
2022-12-01T17:02:01.314Z,1.41
2022-12-01T17:04:32.691Z,1.40
2022-12-01T17:07:02.993Z,1.46
2022-12-01T17:09:35.459Z,1.41
2022-12-01T17:12:08.374Z,1.45
2022-12-01T17:14:39.581Z,1.40
2022-12-01T17:17:10.168Z,1.35
2022-12-01T17:19:40.367Z,1.38
2022-12-01T17:22:10.916Z,1.44
2022-12-01T17:24:43.775Z,1.38
2022-12-01T17:27:14.619Z,1.44
2022-12-01T17:29:54.082Z,1.46
2022-12-01T17:32:24.586Z,1.41
2022-12-01T17:34:56.114Z,1.35
2022-12-01T17:37:27.801Z,1.38
2022-12-01T17:40:02.216Z,1.44
2022-12-01T17:42:33.893Z,1.41
2022-12-01T17:45:10.248Z,1.39
2022-12-01T17:47:40.766Z,1.37
2022-12-01T17:50:12.600Z,1.37
2022-12-01T17:52:43.416Z,1.40
2022-12-01T17:55:16.629Z,1.39
2022-12-01T17:57:47.002Z,1.32
2022-12-01T18:00:18.357Z,1.43
2022-12-01T18:02:50.520Z,1.40
2022-12-01T18:05:20.720Z,1.41
2022-12-01T18:07:51.078Z,1.42
2022-12-01T18:10:24.109Z,1.40
2022-12-01T18:12:54.384Z,1.37
2022-12-01T18:15:26.533Z,1.33
2022-12-01T18:17:58.420Z,1.35
2022-12-01T18:20:28.497Z,1.30
2022-12-01T18:22:58.989Z,1.31
2022-12-01T18:25:31.714Z,1.36
2022-12-01T18:28:02.029Z,1.32
2022-12-01T18:30:32.355Z,1.32
2022-12-01T18:33:03.522Z,1.33
2022-12-01T18:35:33.425Z,1.34
2022-12-01T18:38:03.674Z,1.36
2022-12-01T18:40:41.357Z,1.32
2022-12-01T18:43:12.942Z,1.25
2022-12-01T18:45:42.914Z,1.29
2022-12-01T18:48:13.122Z,1.38
2022-12-01T18:50:43.337Z,1.41
2022-12-01T18:53:13.576Z,1.44
2022-12-01T18:55:46.502Z,1.44
2022-12-01T18:58:16.876Z,1.43
2022-12-01T19:00:46.854Z,1.36
2022-12-01T19:03:17.156Z,1.42
2022-12-01T19:05:47.301Z,1.47
2022-12-01T19:08:17.663Z,1.42
2022-12-01T19:11:00.942Z,1.39
2022-12-01T19:13:32.701Z,1.44
2022-12-01T19:16:08.656Z,1.36
2022-12-01T19:18:39.389Z,1.42
2022-12-01T19:21:11.813Z,1.50
2022-12-01T19:23:42.805Z,1.51
2022-12-01T19:26:18.938Z,1.54
2022-12-01T19:28:50.520Z,1.53
2022-12-01T19:31:22.714Z,1.56
2022-12-01T19:33:54.701Z,1.54
2022-12-01T19:36:27.361Z,1.58
2022-12-01T19:39:00.611Z,1.60
2022-12-01T19:41:35.030Z,1.57
2022-12-01T19:44:05.308Z,1.57
2022-12-01T19:46:35.979Z,1.58
2022-12-01T19:49:07.263Z,1.56
2022-12-01T19:51:40.213Z,1.58
2022-12-01T19:54:13.362Z,1.52
2022-12-01T19:56:46.805Z,1.50
2022-12-01T19:59:20.431Z,1.51
2022-12-01T20:02:06.744Z,1.47
2022-12-01T20:04:40.090Z,1.47
2022-12-01T20:07:10.331Z,1.42
2022-12-01T20:09:46.849Z,1.12
2022-12-01T20:12:22.473Z,1.17
2022-12-01T20:14:53.413Z,1.30
2022-12-01T20:17:23.710Z,1.40
2022-12-01T20:19:54.302Z,1.43
2022-12-01T20:22:24.878Z,1.42
2022-12-01T20:24:55.362Z,1.28
2022-12-01T20:27:28.335Z,1.13
2022-12-01T20:29:59.231Z,1.33
2022-12-01T20:32:29.820Z,1.40
2022-12-01T20:35:01.848Z,1.23
2022-12-01T20:37:32.086Z,1.35
2022-12-01T20:40:02.585Z,1.24
2022-12-01T20:42:36.873Z,1.14
2022-12-01T20:45:08.929Z,1.18
2022-12-01T20:47:39.162Z,1.24
2022-12-01T20:50:10.580Z,1.35
2022-12-01T20:52:42.065Z,1.40
2022-12-01T20:55:12.474Z,1.37
2022-12-01T20:57:45.794Z,1.31
2022-12-01T21:00:42.672Z,1.22
2022-12-01T21:03:13.243Z,1.23
2022-12-01T21:05:57.651Z,1.30
2022-12-01T21:08:27.814Z,1.40
2022-12-01T21:10:58.167Z,1.35
2022-12-01T21:13:43.119Z,1.38
2022-12-01T21:16:24.329Z,1.28
2022-12-01T21:19:06.506Z,1.39
2022-12-01T21:21:53.314Z,1.42
2022-12-01T21:24:33.177Z,1.47
2022-12-01T21:27:15.608Z,1.42
2022-12-01T21:29:49.856Z,1.42
2022-12-01T21:32:29.888Z,1.41
2022-12-01T21:35:04.503Z,1.42
2022-12-01T21:37:50.385Z,1.35
2022-12-01T21:40:24.628Z,1.05
2022-12-01T21:42:55.330Z,1.09
2022-12-01T21:45:30.309Z,1.17
2022-12-01T21:48:09.461Z,1.34
2022-12-01T21:50:43.281Z,1.42
2022-12-01T21:53:16.016Z,1.49
2022-12-01T21:55:49.335Z,1.50
2022-12-01T21:58:29.254Z,1.44
2022-12-01T22:01:03.151Z,1.38
2022-12-01T22:03:35.010Z,1.27
2022-12-01T22:06:31.627Z,1.31
2022-12-01T22:09:04.968Z,1.34
2022-12-01T22:11:35.180Z,1.41
2022-12-01T22:14:15.532Z,1.47
2022-12-01T22:16:52.112Z,1.37
2022-12-01T22:19:28.362Z,1.35
2022-12-01T22:22:03.796Z,1.35
2022-12-01T22:24:41.897Z,1.33
2022-12-01T22:27:25.139Z,1.44
2022-12-01T22:29:59.215Z,1.49
2022-12-01T22:32:46.927Z,1.53
2022-12-01T22:35:42.362Z,1.50
2022-12-01T22:38:22.236Z,1.50
2022-12-01T22:40:58.603Z,1.49
2022-12-01T22:43:32.107Z,1.43
2022-12-01T22:46:14.388Z,1.40
2022-12-01T22:48:49.434Z,1.48
2022-12-01T22:51:26.591Z,1.50
2022-12-01T22:54:13.506Z,1.53
2022-12-01T22:56:45.721Z,1.54
2022-12-01T22:59:18.517Z,1.53
2022-12-01T23:01:54.604Z,1.56
2022-12-01T23:04:31.228Z,1.54
2022-12-01T23:07:12.782Z,1.49
2022-12-01T23:09:46.035Z,1.52
2022-12-01T23:12:27.547Z,1.51
2022-12-01T23:15:02.007Z,1.40
2022-12-01T23:17:38.944Z,1.47
2022-12-01T23:20:28.431Z,1.48
2022-12-01T23:23:04.515Z,1.49
2022-12-01T23:25:37.244Z,1.53
2022-12-01T23:28:11.070Z,1.53
2022-12-01T23:30:46.095Z,1.53
2022-12-01T23:33:21.738Z,1.46
2022-12-01T23:35:58.812Z,1.35
2022-12-01T23:38:33.970Z,1.43
2022-12-01T23:41:10.489Z,1.45
2022-12-01T23:43:48.609Z,1.52
2022-12-01T23:46:21.646Z,1.54
2022-12-01T23:48:55.234Z,1.51
2022-12-01T23:51:33.611Z,1.53
2022-12-01T23:54:09.362Z,1.48
2022-12-01T23:56:40.767Z,1.49
2022-12-01T23:59:16.940Z,1.48
